| time (UTC) | temp F | wind direction | speed MPH | gust MPH | rain 1hr in | rain 24hr in | rain mn in | humidity % | barometer mb |
| 20260510044912 | 49 | 328 | 7.0 | 12.0 | 0.00 | 0.28 | 0.00 | 96 | 1009.8 |
| 20260510043912 | 49 | 302 | 7.0 | 15.0 | 0.00 | 0.28 | 0.00 | 96 | 1009.5 |
| 20260510043412 | 49 | 320 | 7.0 | 12.0 | 0.00 | 0.28 | 0.00 | 96 | 1009.4 |
| 20260510042912 | 49 | 289 | 3.0 | 6.0 | 0.00 | 0.28 | 0.00 | 96 | 1009.0 |
| 20260510041912 | 49 | 289 | 2.0 | 5.0 | 0.00 | 0.28 | 0.00 | 96 | 1008.9 |
| 20260510041412 | 49 | 290 | 3.0 | 7.0 | 0.00 | 0.28 | 0.00 | 96 | 1008.8 |
| 20260510040912 | 49 | 291 | 3.0 | 12.0 | 0.00 | 0.28 | 0.00 | 96 | 1008.9 |
| 20260510035912 | 49 | 254 | 2.0 | 9.0 | 0.00 | 0.28 | 0.28 | 96 | 1009.1 |
| 20260510035412 | 49 | 239 | 1.0 | 5.0 | 0.00 | 0.28 | 0.28 | 96 | 1008.7 |
| 20260510034912 | 49 | 239 | 2.0 | 3.0 | 0.00 | 0.28 | 0.28 | 96 | 1008.5 |
| 20260510034412 | 49 | 239 | 2.0 | 5.0 | 0.00 | 0.28 | 0.28 | 96 | 1008.3 |
| 20260510033412 | 49 | 239 | 2.0 | 7.0 | 0.00 | 0.28 | 0.28 | 96 | 1008.1 |
| 20260510032912 | 49 | 266 | 3.0 | 5.0 | 0.00 | 0.28 | 0.28 | 95 | 1008.0 |
| 20260510032412 | 49 | 270 | 2.0 | 5.0 | 0.00 | 0.28 | 0.28 | 95 | 1008.0 |
| 20260510031912 | 49 | 270 | 2.0 | 3.0 | 0.00 | 0.28 | 0.28 | 95 | 1007.9 |
| 20260510031412 | 49 | 270 | 2.0 | 6.0 | 0.00 | 0.28 | 0.28 | 95 | 1007.8 |
| 20260510030412 | 49 | 251 | 2.0 | 6.0 | 0.00 | 0.28 | 0.28 | 95 | 1008.1 |
| 20260510025912 | 49 | 252 | 1.0 | 6.0 | 0.00 | 0.28 | 0.28 | 95 | 1008.2 |
| 20260510025411 | 50 | 252 | 3.0 | 6.0 | 0.00 | 0.28 | 0.28 | 95 | 1008.1 |
| 20260510024912 | 50 | 268 | 2.0 | 6.0 | 0.00 | 0.28 | 0.28 | 95 | 1008.0 |
| 20260510024412 | 50 | 267 | 2.0 | 6.0 | 0.00 | 0.28 | 0.28 | 95 | 1008.1 |
| 20260510023912 | 50 | 283 | 5.0 | 12.0 | 0.00 | 0.28 | 0.28 | 95 | 1008.3 |
| 20260510022912 | 50 | 318 | 9.0 | 16.0 | 0.00 | 0.28 | 0.28 | 95 | 1008.5 |
| 20260510022412 | 50 | 323 | 7.0 | 12.0 | 0.00 | 0.28 | 0.28 | 95 | 1008.5 |
| 20260510021912 | 50 | 287 | 7.0 | 12.0 | 0.00 | 0.28 | 0.28 | 95 | 1008.4 |
| 20260510021412 | 50 | 315 | 7.0 | 17.0 | 0.00 | 0.28 | 0.28 | 95 | 1008.2 |
| 20260510020912 | 50 | 255 | 6.0 | 17.0 | 0.00 | 0.28 | 0.28 | 95 | 1008.0 |
| 20260510020412 | 50 | 274 | 6.0 | 12.0 | 0.00 | 0.28 | 0.28 | 95 | 1007.7 |
| 20260510015911 | 50 | 264 | 9.0 | 21.0 | 0.00 | 0.28 | 0.28 | 95 | 1007.5 |
| 20260510014912 | 49 | 256 | 6.0 | 16.0 | 0.00 | 0.28 | 0.28 | 95 | 1007.2 |
| 20260510014412 | 49 | 236 | 7.0 | 17.0 | 0.00 | 0.28 | 0.28 | 95 | 1007.3 |
| 20260510013912 | 49 | 212 | 7.0 | 12.0 | 0.00 | 0.28 | 0.28 | 95 | 1007.2 |
| 20260510013412 | 49 | 239 | 6.0 | 13.0 | 0.00 | 0.28 | 0.28 | 95 | 1007.1 |
| 20260510012912 | 49 | 222 | 7.0 | 15.0 | 0.00 | 0.28 | 0.28 | 95 | 1007.0 |
| 20260510012412 | 49 | 221 | 8.0 | 15.0 | 0.00 | 0.28 | 0.28 | 95 | 1007.0 |
| 20260510011911 | 50 | 216 | 9.0 | 16.0 | 0.00 | 0.28 | 0.28 | 95 | 1006.9 |
| 20260510011411 | 50 | 239 | 7.0 | 13.0 | 0.00 | 0.28 | 0.28 | 95 | 1007.0 |
| 20260510010912 | 50 | 214 | 7.0 | 13.0 | 0.00 | 0.28 | 0.28 | 95 | 1006.9 |
| 20260510010412 | 50 | 228 | 7.0 | 16.0 | 0.00 | 0.28 | 0.28 | 95 | 1007.0 |
| 20260510005912 | 50 | 217 | 4.0 | 13.0 | 0.00 | 0.28 | 0.28 | 95 | 1006.8 |
| 20260510005411 | 50 | 214 | 6.0 | 16.0 | 0.00 | 0.28 | 0.28 | 94 | 1006.7 |
| 20260510004912 | 50 | 254 | 5.0 | 15.0 | 0.00 | 0.28 | 0.28 | 94 | 1006.8 |
| 20260510004412 | 50 | 219 | 5.0 | 16.0 | 0.00 | 0.28 | 0.28 | 94 | 1006.5 |
| 20260510003912 | 50 | 257 | 9.0 | 17.0 | 0.00 | 0.28 | 0.28 | 94 | 1006.5 |
| 20260510003411 | 50 | 251 | 6.0 | 15.0 | 0.00 | 0.28 | 0.28 | 94 | 1006.4 |
| 20260510002412 | 51 | 241 | 5.0 | 12.0 | 0.00 | 0.28 | 0.28 | 94 | 1006.2 |
| 20260510001911 | 51 | 217 | 5.0 | 10.0 | 0.00 | 0.28 | 0.28 | 94 | 1006.2 |
| 20260510001412 | 51 | 209 | 4.0 | 12.0 | 0.00 | 0.28 | 0.28 | 94 | 1006.1 |
| 20260510000912 | 51 | 210 | 6.0 | 10.0 | 0.00 | 0.28 | 0.28 | 94 | 1006.0 |
| 20260510000412 | 51 | 211 | 5.0 | 12.0 | 0.01 | 0.28 | 0.28 | 94 | 1006.1 |
| 20260509235912 | 51 | 223 | 4.0 | 9.0 | 0.01 | 0.28 | 0.28 | 95 | 1006.0 |
| 20260509235412 | 51 | 215 | 3.0 | 6.0 | 0.02 | 0.28 | 0.28 | 95 | 1006.0 |
| 20260509234912 | 51 | 204 | 4.0 | 9.0 | 0.04 | 0.28 | 0.28 | 95 | 1005.7 |
| 20260509234411 | 51 | 218 | 2.0 | 7.0 | 0.07 | 0.28 | 0.28 | 95 | 1005.8 |
| 20260509233411 | 52 | 229 | 2.0 | 7.0 | 0.12 | 0.28 | 0.28 | 95 | 1005.9 |
| 20260509232911 | 52 | 207 | 3.0 | 10.0 | 0.14 | 0.28 | 0.28 | 95 | 1005.7 |
| 20260509232411 | 52 | 227 | 2.0 | 16.0 | 0.17 | 0.28 | 0.28 | 95 | 1005.6 |
| 20260509231912 | 52 | 213 | 7.0 | 15.0 | 0.21 | 0.28 | 0.28 | 95 | 1005.7 |
| 20260509231411 | 52 | 235 | 5.0 | 12.0 | 0.24 | 0.28 | 0.28 | 95 | 1005.8 |
| 20260509230912 | 51 | 208 | 5.0 | 9.0 | 0.27 | 0.28 | 0.28 | 95 | 1005.8 |
| 20260509230412 | 51 | 208 | 4.0 | 9.0 | 0.27 | 0.27 | 0.27 | 94 | 1005.8 |
| 20260509225912 | 51 | 220 | 5.0 | 7.0 | 0.27 | 0.27 | 0.27 | 94 | 1006.0 |
| 20260509225412 | 51 | 263 | 5.0 | 21.0 | 0.26 | 0.26 | 0.26 | 94 | 1006.4 |
| 20260509224912 | 51 | 313 | 11.0 | 24.0 | 0.24 | 0.24 | 0.24 | 94 | 1007.0 |
| 20260509224412 | 51 | 322 | 14.0 | 23.0 | 0.20 | 0.20 | 0.20 | 94 | 1007.1 |
| 20260509223912 | 51 | 315 | 16.0 | 26.0 | 0.18 | 0.18 | 0.18 | 94 | 1007.3 |
| 20260509223412 | 51 | 309 | 22.0 | 36.0 | 0.16 | 0.16 | 0.16 | 93 | 1007.8 |
| 20260509222911 | 51 | 307 | 20.0 | 39.0 | 0.13 | 0.13 | 0.13 | 93 | 1007.7 |
| 20260509222411 | 52 | 323 | 25.0 | 38.0 | 0.11 | 0.11 | 0.11 | 92 | 1007.6 |
| 20260509221912 | 53 | 320 | 26.0 | 47.0 | 0.06 | 0.06 | 0.06 | 90 | 1007.6 |
| 20260509221412 | 54 | 312 | 33.0 | 49.0 | 0.03 | 0.03 | 0.03 | 90 | 1007.4 |
| 20260509220412 | 55 | 290 | 10.0 | 18.0 | 0.00 | 0.00 | 0.00 | 92 | 1005.7 |
| 20260509215911 | 55 | 289 | 7.0 | 15.0 | 0.00 | 0.00 | 0.00 | 91 | 1005.2 |
| 20260509215412 | 55 | 231 | 4.0 | 7.0 | 0.00 | 0.00 | 0.00 | 91 | 1004.7 |
| 20260509214911 | 55 | 259 | 4.0 | 9.0 | 0.00 | 0.00 | 0.00 | 90 | 1004.9 |
| 20260509214412 | 55 | 267 | 3.0 | 7.0 | 0.00 | 0.00 | 0.00 | 89 | 1004.8 |
| 20260509213911 | 55 | 201 | 5.0 | 9.0 | 0.00 | 0.00 | 0.00 | 89 | 1004.8 |
| 20260509212412 | 55 | 220 | 3.0 | 7.0 | 0.00 | 0.00 | 0.00 | 90 | 1004.7 |
| 20260509211912 | 55 | 219 | 5.0 | 9.0 | 0.00 | 0.00 | 0.00 | 89 | 1004.7 |
| 20260509211413 | 55 | 227 | 6.0 | 10.0 | 0.00 | 0.00 | 0.00 | 90 | 1004.9 |
| 20260509210912 | 55 | 225 | 5.0 | 7.0 | 0.00 | 0.00 | 0.00 | 90 | 1004.7 |
| 20260509210411 | 55 | 219 | 4.0 | 9.0 | 0.00 | 0.00 | 0.00 | 89 | 1004.7 |
| 20260509204912 | 56 | 209 | 5.0 | 7.0 | 0.00 | 0.00 | 0.00 | 87 | 1004.9 |
| 20260509204411 | 56 | 224 | 5.0 | 10.0 | 0.00 | 0.00 | 0.00 | 87 | 1005.0 |
| 20260509203412 | 57 | 219 | 6.0 | 12.0 | 0.00 | 0.00 | 0.00 | 86 | 1005.0 |
| 20260509202912 | 57 | 240 | 6.0 | 10.0 | 0.00 | 0.00 | 0.00 | 86 | 1005.1 |
| 20260509202411 | 57 | 206 | 5.0 | 10.0 | 0.00 | 0.00 | 0.00 | 85 | 1005.1 |
| 20260509201911 | 58 | 196 | 6.0 | 12.0 | 0.00 | 0.00 | 0.00 | 84 | 1005.3 |
| 20260509201412 | 58 | 233 | 6.0 | 10.0 | 0.00 | 0.00 | 0.00 | 85 | 1005.5 |
| 20260509200912 | 58 | 245 | 4.0 | 9.0 | 0.00 | 0.00 | 0.00 | 84 | 1005.7 |
| 20260509200411 | 59 | 235 | 7.0 | 10.0 | 0.00 | 0.00 | 0.00 | 84 | 1005.8 |
| 20260509195912 | 58 | 266 | 5.0 | 10.0 | 0.00 | 0.00 | 0.00 | 85 | 1005.9 |
| 20260509195411 | 58 | 241 | 5.0 | 12.0 | 0.00 | 0.00 | 0.00 | 85 | 1005.9 |
| 20260509194912 | 58 | 228 | 5.0 | 9.0 | 0.00 | 0.00 | 0.00 | 84 | 1006.0 |
| 20260509194411 | 58 | 224 | 6.0 | 12.0 | 0.00 | 0.00 | 0.00 | 84 | 1005.9 |
| 20260509193912 | 58 | 210 | 6.0 | 13.0 | 0.00 | 0.00 | 0.00 | 85 | 1005.9 |
| 20260509193412 | 57 | 266 | 5.0 | 9.0 | 0.00 | 0.00 | 0.00 | 86 | 1005.8 |
| 20260509192912 | 57 | 247 | 3.0 | 7.0 | 0.00 | 0.00 | 0.00 | 88 | 1005.8 |
| 20260509192411 | 56 | 226 | 3.0 | 6.0 | 0.00 | 0.00 | 0.00 | 87 | 1006.0 |
| 20260509191912 | 56 | 226 | 5.0 | 13.0 | 0.00 | 0.00 | 0.00 | 86 | 1005.9 |
| 20260509190911 | 58 | 215 | 7.0 | 13.0 | 0.00 | 0.00 | 0.00 | 84 | 1006.2 |
| 20260509190411 | 58 | 232 | 7.0 | 13.0 | 0.00 | 0.00 | 0.00 | 85 | 1006.1 |
| 20260509185911 | 57 | 251 | 6.0 | 12.0 | 0.00 | 0.00 | 0.00 | 87 | 1006.1 |
| 20260509185412 | 57 | 213 | 7.0 | 15.0 | 0.00 | 0.00 | 0.00 | 85 | 1006.2 |
| 20260509184912 | 58 | 219 | 9.0 | 16.0 | 0.00 | 0.00 | 0.00 | 83 | 1006.3 |
| 20260509184411 | 58 | 227 | 6.0 | 16.0 | 0.00 | 0.00 | 0.00 | 84 | 1006.5 |
| 20260509183911 | 58 | 239 | 10.0 | 17.0 | 0.00 | 0.00 | 0.00 | 85 | 1006.6 |
| 20260509183411 | 58 | 223 | 10.0 | 17.0 | 0.00 | 0.00 | 0.00 | 84 | 1006.6 |
| 20260509182911 | 58 | 216 | 8.0 | 16.0 | 0.00 | 0.00 | 0.00 | 84 | 1006.7 |
| 20260509182412 | 58 | 267 | 9.0 | 13.0 | 0.00 | 0.00 | 0.00 | 83 | 1006.6 |
| 20260509181411 | 59 | 230 | 6.0 | 18.0 | 0.00 | 0.00 | 0.00 | 83 | 1006.8 |
| 20260509180912 | 59 | 236 | 8.0 | 17.0 | 0.00 | 0.00 | 0.00 | 83 | 1006.9 |
| 20260509180411 | 59 | 220 | 11.0 | 16.0 | 0.00 | 0.00 | 0.00 | 82 | 1006.9 |
| 20260509175912 | 59 | 244 | 8.0 | 17.0 | 0.00 | 0.00 | 0.00 | 83 | 1007.0 |
| 20260509174912 | 59 | 216 | 6.0 | 12.0 | 0.00 | 0.00 | 0.00 | 84 | 1007.0 |
| 20260509174411 | 58 | 242 | 6.0 | 13.0 | 0.00 | 0.00 | 0.00 | 84 | 1007.1 |
| 20260509173912 | 58 | 201 | 7.0 | 12.0 | 0.00 | 0.00 | 0.00 | 85 | 1007.1 |
| 20260509172912 | 57 | 199 | 5.0 | 15.0 | 0.00 | 0.00 | 0.00 | 86 | 1007.2 |
| 20260509172411 | 57 | 190 | 5.0 | 13.0 | 0.00 | 0.00 | 0.00 | 86 | 1007.2 |
| 20260509171911 | 57 | 190 | 9.0 | 15.0 | 0.00 | 0.00 | 0.00 | 85 | 1007.3 |
| 20260509171412 | 58 | 211 | 7.0 | 15.0 | 0.00 | 0.00 | 0.00 | 85 | 1007.6 |
| 20260509170911 | 57 | 239 | 6.0 | 15.0 | 0.00 | 0.00 | 0.00 | 86 | 1007.8 |
| 20260509170411 | 57 | 211 | 6.0 | 12.0 | 0.00 | 0.00 | 0.00 | 86 | 1007.7 |
| 20260509165912 | 57 | 216 | 9.0 | 17.0 | 0.00 | 0.00 | 0.00 | 86 | 1007.8 |
| 20260509165411 | 57 | 210 | 6.0 | 15.0 | 0.00 | 0.00 | 0.00 | 87 | 1007.7 |
| 20260509164911 | 56 | 243 | 9.0 | 16.0 | 0.00 | 0.00 | 0.00 | 86 | 1007.8 |
| 20260509164412 | 56 | 251 | 6.0 | 15.0 | 0.00 | 0.00 | 0.00 | 88 | 1007.8 |
| 20260509163912 | 56 | 231 | 6.0 | 15.0 | 0.00 | 0.00 | 0.00 | 88 | 1007.7 |
| 20260509163412 | 55 | 197 | 7.0 | 16.0 | 0.00 | 0.00 | 0.00 | 88 | 1007.7 |
| 20260509162912 | 55 | 205 | 9.0 | 16.0 | 0.00 | 0.00 | 0.00 | 87 | 1007.7 |
| 20260509162411 | 56 | 193 | 6.0 | 12.0 | 0.00 | 0.00 | 0.00 | 87 | 1007.8 |
| 20260509161911 | 55 | 232 | 5.0 | 13.0 | 0.00 | 0.00 | 0.00 | 88 | 1007.9 |
| 20260509161411 | 55 | 250 | 8.0 | 15.0 | 0.00 | 0.00 | 0.00 | 88 | 1008.0 |
| 20260509160911 | 55 | 218 | 8.0 | 15.0 | 0.00 | 0.00 | 0.00 | 88 | 1008.0 |
| 20260509160411 | 55 | 205 | 7.0 | 16.0 | 0.00 | 0.00 | 0.00 | 88 | 1008.2 |
| 20260509155911 | 55 | 230 | 4.0 | 10.0 | 0.00 | 0.00 | 0.00 | 89 | 1008.2 |
| 20260509155412 | 55 | 239 | 6.0 | 13.0 | 0.00 | 0.00 | 0.00 | 88 | 1008.2 |
| 20260509153912 | 55 | 246 | 6.0 | 13.0 | 0.00 | 0.00 | 0.00 | 87 | 1008.2 |
| 20260509153412 | 55 | 251 | 4.0 | 10.0 | 0.00 | 0.00 | 0.00 | 86 | 1008.3 |
| 20260509152912 | 56 | 266 | 8.0 | 16.0 | 0.00 | 0.00 | 0.00 | 85 | 1008.3 |
| 20260509152411 | 56 | 217 | 7.0 | 13.0 | 0.00 | 0.00 | 0.00 | 84 | 1008.3 |
| 20260509151911 | 57 | 223 | 5.0 | 10.0 | 0.00 | 0.00 | 0.00 | 85 | 1008.3 |
| 20260509151411 | 57 | 216 | 4.0 | 12.0 | 0.00 | 0.00 | 0.00 | 85 | 1008.2 |
| 20260509150911 | 57 | 227 | 6.0 | 13.0 | 0.00 | 0.00 | 0.00 | 85 | 1008.3 |
| 20260509150411 | 57 | 235 | 5.0 | 10.0 | 0.00 | 0.00 | 0.00 | 86 | 1008.2 |
| 20260509145911 | 56 | 264 | 3.0 | 16.0 | 0.00 | 0.00 | 0.00 | 86 | 1008.2 |
| 20260509145411 | 56 | 231 | 5.0 | 12.0 | 0.00 | 0.00 | 0.00 | 87 | 1008.1 |
| 20260509144911 | 56 | 252 | 6.0 | 13.0 | 0.00 | 0.00 | 0.00 | 87 | 1008.2 |
| 20260509144412 | 56 | 243 | 9.0 | 15.0 | 0.00 | 0.00 | 0.00 | 87 | 1008.2 |
| 20260509143912 | 55 | 221 | 5.0 | 10.0 | 0.00 | 0.00 | 0.00 | 89 | 1008.1 |
| 20260509143412 | 55 | 204 | 8.0 | 13.0 | 0.00 | 0.00 | 0.00 | 88 | 1008.1 |
| 20260509142912 | 55 | 217 | 3.0 | 10.0 | 0.00 | 0.00 | 0.00 | 90 | 1008.1 |
| 20260509142411 | 54 | 238 | 5.0 | 10.0 | 0.00 | 0.00 | 0.00 | 90 | 1008.1 |
| 20260509141911 | 54 | 228 | 5.0 | 15.0 | 0.00 | 0.00 | 0.00 | 91 | 1008.1 |
| 20260509141412 | 54 | 218 | 3.0 | 10.0 | 0.00 | 0.00 | 0.00 | 91 | 1008.2 |
| 20260509140411 | 53 | 217 | 6.0 | 12.0 | 0.00 | 0.00 | 0.00 | 92 | 1008.2 |
| 20260509135911 | 53 | 229 | 6.0 | 9.0 | 0.00 | 0.00 | 0.00 | 92 | 1008.2 |
| 20260509135411 | 52 | 235 | 5.0 | 10.0 | 0.00 | 0.00 | 0.00 | 93 | 1008.1 |
| 20260509134911 | 52 | 228 | 4.0 | 9.0 | 0.00 | 0.00 | 0.00 | 93 | 1008.2 |
| 20260509134411 | 52 | 199 | 5.0 | 10.0 | 0.00 | 0.00 | 0.00 | 93 | 1008.3 |
| 20260509133911 | 52 | 231 | 6.0 | 10.0 | 0.00 | 0.00 | 0.00 | 94 | 1008.4 |
| 20260509133411 | 52 | 231 | 4.0 | 10.0 | 0.00 | 0.00 | 0.00 | 94 | 1008.4 |
| 20260509132911 | 51 | 245 | 4.0 | 10.0 | 0.00 | 0.00 | 0.00 | 94 | 1008.6 |
| 20260509132411 | 51 | 206 | 6.0 | 13.0 | 0.00 | 0.00 | 0.00 | 94 | 1008.6 |
| 20260509131912 | 51 | 215 | 4.0 | 12.0 | 0.00 | 0.00 | 0.00 | 94 | 1008.6 |
| 20260509130911 | 51 | 207 | 6.0 | 10.0 | 0.00 | 0.00 | 0.00 | 95 | 1008.6 |
| 20260509130411 | 51 | 208 | 3.0 | 9.0 | 0.00 | 0.00 | 0.00 | 95 | 1008.5 |
| 20260509125912 | 51 | 198 | 6.0 | 10.0 | 0.00 | 0.00 | 0.00 | 95 | 1008.5 |
| 20260509125412 | 51 | 187 | 6.0 | 13.0 | 0.00 | 0.00 | 0.00 | 95 | 1008.6 |
| 20260509123912 | 50 | 208 | 5.0 | 15.0 | 0.00 | 0.00 | 0.00 | 95 | 1008.7 |
| 20260509123411 | 50 | 211 | 5.0 | 10.0 | 0.00 | 0.00 | 0.00 | 96 | 1008.7 |
| 20260509122412 | 50 | 216 | 4.0 | 9.0 | 0.00 | 0.00 | 0.00 | 96 | 1008.7 |
| 20260509121911 | 50 | 231 | 3.0 | 7.0 | 0.00 | 0.00 | 0.00 | 96 | 1008.9 |
| 20260509120411 | 49 | 216 | 6.0 | 10.0 | 0.00 | 0.00 | 0.00 | 96 | 1008.8 |
| 20260509115911 | 49 | 221 | 6.0 | 10.0 | 0.00 | 0.00 | 0.00 | 96 | 1008.9 |
| 20260509115411 | 49 | 220 | 6.0 | 10.0 | 0.00 | 0.00 | 0.00 | 96 | 1008.8 |
| 20260509114911 | 49 | 227 | 6.0 | 10.0 | 0.00 | 0.00 | 0.00 | 96 | 1008.7 |
| 20260509114411 | 49 | 203 | 6.0 | 13.0 | 0.00 | 0.00 | 0.00 | 96 | 1008.7 |
| 20260509113912 | 49 | 217 | 3.0 | 7.0 | 0.00 | 0.00 | 0.00 | 96 | 1008.7 |
| 20260509112911 | 49 | 231 | 3.0 | 7.0 | 0.00 | 0.00 | 0.00 | 96 | 1008.7 |
| 20260509112411 | 49 | 220 | 4.0 | 7.0 | 0.00 | 0.00 | 0.00 | 96 | 1008.6 |
| 20260509111912 | 49 | 214 | 5.0 | 10.0 | 0.00 | 0.00 | 0.00 | 96 | 1008.7 |
| 20260509111412 | 49 | 228 | 5.0 | 7.0 | 0.00 | 0.00 | 0.00 | 96 | 1008.6 |
| 20260509110911 | 49 | 231 | 4.0 | 7.0 | 0.00 | 0.00 | 0.00 | 96 | 1008.6 |
| 20260509110412 | 49 | 207 | 4.0 | 7.0 | 0.00 | 0.00 | 0.00 | 96 | 1008.6 |
| 20260509105911 | 49 | 214 | 5.0 | 9.0 | 0.00 | 0.00 | 0.00 | 96 | 1008.7 |
| 20260509105411 | 49 | 211 | 3.0 | 9.0 | 0.00 | 0.00 | 0.00 | 96 | 1008.7 |
| 20260509104911 | 49 | 231 | 2.0 | 9.0 | 0.00 | 0.01 | 0.00 | 96 | 1008.6 |
| 20260509104411 | 49 | 232 | 4.0 | 9.0 | 0.00 | 0.01 | 0.00 | 96 | 1008.6 |
| 20260509103912 | 49 | 222 | 4.0 | 9.0 | 0.00 | 0.01 | 0.00 | 96 | 1008.8 |
| 20260509103411 | 48 | 224 | 2.0 | 6.0 | 0.00 | 0.01 | 0.00 | 96 | 1008.7 |
| 20260509102912 | 48 | 225 | 3.0 | 7.0 | 0.00 | 0.02 | 0.00 | 96 | 1008.8 |
| 20260509101412 | 48 | 233 | 2.0 | 5.0 | 0.00 | 0.04 | 0.00 | 95 | 1008.9 |
| 20260509100912 | 48 | 233 | 2.0 | 6.0 | 0.00 | 0.04 | 0.00 | 95 | 1008.9 |
| 20260509100411 | 48 | 231 | 2.0 | 6.0 | 0.00 | 0.04 | 0.00 | 95 | 1008.8 |
| 20260509095911 | 49 | 227 | 5.0 | 7.0 | 0.00 | 0.04 | 0.00 | 95 | 1008.8 |
| 20260509094911 | 48 | 220 | 4.0 | 6.0 | 0.00 | 0.04 | 0.00 | 95 | 1008.9 |
| 20260509094411 | 48 | 231 | 3.0 | 9.0 | 0.00 | 0.04 | 0.00 | 95 | 1008.8 |
| 20260509093411 | 48 | 221 | 3.0 | 9.0 | 0.00 | 0.05 | 0.00 | 95 | 1008.9 |
| 20260509092911 | 48 | 247 | 4.0 | 9.0 | 0.00 | 0.05 | 0.00 | 95 | 1008.9 |
| 20260509092411 | 48 | 220 | 4.0 | 9.0 | 0.00 | 0.05 | 0.00 | 95 | 1009.0 |
| 20260509091911 | 48 | 215 | 3.0 | 6.0 | 0.00 | 0.05 | 0.00 | 95 | 1009.1 |
| 20260509091411 | 48 | 214 | 2.0 | 6.0 | 0.00 | 0.05 | 0.00 | 95 | 1008.9 |
| 20260509090911 | 48 | 213 | 3.0 | 6.0 | 0.00 | 0.05 | 0.00 | 95 | 1008.9 |
| 20260509085911 | 48 | 249 | 2.0 | 6.0 | 0.00 | 0.05 | 0.00 | 95 | 1008.9 |
| 20260509085411 | 48 | 249 | 3.0 | 7.0 | 0.00 | 0.05 | 0.00 | 95 | 1009.0 |
| 20260509084911 | 48 | 258 | 3.0 | 6.0 | 0.00 | 0.05 | 0.00 | 94 | 1009.0 |
| 20260509084412 | 48 | 257 | 2.0 | 5.0 | 0.00 | 0.05 | 0.00 | 94 | 1009.1 |
| 20260509083911 | 48 | 231 | 2.0 | 5.0 | 0.00 | 0.05 | 0.00 | 94 | 1009.0 |
| 20260509083412 | 48 | 231 | 3.0 | 7.0 | 0.00 | 0.05 | 0.00 | 94 | 1009.0 |
| 20260509082911 | 48 | 211 | 3.0 | 12.0 | 0.00 | 0.05 | 0.00 | 94 | 1009.1 |
| 20260509082412 | 49 | 223 | 6.0 | 9.0 | 0.00 | 0.05 | 0.00 | 93 | 1009.1 |
| 20260509081911 | 49 | 260 | 2.0 | 5.0 | 0.00 | 0.05 | 0.00 | 93 | 1009.1 |
| 20260509081411 | 49 | 235 | 3.0 | 6.0 | 0.00 | 0.05 | 0.00 | 93 | 1009.1 |
| 20260509080911 | 49 | 226 | 4.0 | 7.0 | 0.00 | 0.05 | 0.00 | 93 | 1009.1 |
| 20260509075911 | 49 | 232 | 2.0 | 6.0 | 0.00 | 0.05 | 0.00 | 93 | 1009.1 |
| 20260509074411 | 49 | 211 | 3.0 | 7.0 | 0.00 | 0.05 | 0.00 | 92 | 1009.2 |
| 20260509073912 | 49 | 209 | 5.0 | 13.0 | 0.00 | 0.05 | 0.00 | 92 | 1009.2 |
| 20260509072911 | 49 | 220 | 5.0 | 13.0 | 0.00 | 0.05 | 0.00 | 92 | 1009.4 |
| 20260509072411 | 49 | 193 | 4.0 | 12.0 | 0.00 | 0.05 | 0.00 | 91 | 1009.4 |
| 20260509071911 | 49 | 178 | 1.0 | 6.0 | 0.00 | 0.05 | 0.00 | 91 | 1009.4 |
| 20260509071411 | 49 | 174 | 3.0 | 9.0 | 0.00 | 0.05 | 0.00 | 90 | 1009.6 |
| 20260509070912 | 49 | 203 | 5.0 | 9.0 | 0.00 | 0.05 | 0.00 | 90 | 1009.6 |
| 20260509070412 | 49 | 199 | 3.0 | 9.0 | 0.00 | 0.05 | 0.00 | 90 | 1009.6 |
| 20260509065911 | 49 | 201 | 4.0 | 13.0 | 0.00 | 0.05 | 0.00 | 89 | 1009.6 |
| 20260509065411 | 49 | 175 | 2.0 | 9.0 | 0.00 | 0.05 | 0.00 | 89 | 1009.7 |
| 20260509064911 | 49 | 160 | 3.0 | 9.0 | 0.00 | 0.05 | 0.00 | 88 | 1009.8 |
| 20260509064411 | 49 | 156 | 2.0 | 7.0 | 0.00 | 0.05 | 0.00 | 87 | 1009.8 |
| 20260509063912 | 49 | 154 | 1.0 | 7.0 | 0.00 | 0.05 | 0.00 | 87 | 1009.8 |
| 20260509062412 | 49 | 141 | 4.0 | 12.0 | 0.00 | 0.05 | 0.00 | 85 | 1009.9 |
| 20260509061911 | 49 | 156 | 2.0 | 7.0 | 0.00 | 0.05 | 0.00 | 85 | 1010.0 |
| 20260509061411 | 49 | 158 | 2.0 | 7.0 | 0.00 | 0.05 | 0.00 | 84 | 1010.1 |
| 20260509060912 | 49 | 156 | 2.0 | 6.0 | 0.00 | 0.05 | 0.00 | 84 | 1010.1 |
| 20260509060411 | 49 | 156 | 2.0 | 7.0 | 0.00 | 0.05 | 0.00 | 84 | 1010.2 |
| 20260509055911 | 48 | 137 | 3.0 | 10.0 | 0.00 | 0.05 | 0.00 | 85 | 1010.4 |
| 20260509055412 | 48 | 150 | 1.0 | 3.0 | 0.00 | 0.05 | 0.00 | 85 | 1010.3 |
| 20260509054911 | 48 | 151 | 1.0 | 5.0 | 0.00 | 0.05 | 0.00 | 86 | 1010.4 |
| 20260509054411 | 48 | 152 | 2.0 | 6.0 | 0.00 | 0.05 | 0.00 | 85 | 1010.6 |
| 20260509053911 | 47 | 173 | 2.0 | 5.0 | 0.00 | 0.05 | 0.00 | 86 | 1010.8 |
| 20260509053411 | 48 | 173 | 0.0 | 3.0 | 0.00 | 0.06 | 0.00 | 86 | 1010.8 |
| 20260509052411 | 48 | 173 | 1.0 | 3.0 | 0.00 | 0.06 | 0.00 | 86 | 1010.9 |
| 20260509051411 | 48 | 174 | 1.0 | 3.0 | 0.00 | 0.06 | 0.00 | 87 | 1010.9 |
| 20260509050411 | 47 | 174 | 1.0 | 5.0 | 0.00 | 0.06 | 0.00 | 87 | 1011.0 |
| 20260509045911 | 47 | 208 | 1.0 | 5.0 | 0.00 | 0.06 | 0.00 | 87 | 1011.0 |
| 20260509045411 | 47 | 208 | 1.0 | 3.0 | 0.00 | 0.06 | 0.00 | 86 | 1011.1 |